Terminal Aerodrome Forecast
Issued by NWS Quad Cities IA IL

Home | Current Version | Previous Version | Text Only | Print | Product List | Glossary On
Versions: 1 2 3 4 5 6 7 8 9 10 11 12 13
785
FTUS43 KDVN 250520
TAFDBQ
TAF
KDBQ 250520Z 2506/2606 16004KT P6SM SKC
     FM251700 18008KT P6SM SCT050 PROB30 2523/2603 5SM SHRA BKN040=

USA.gov is the U.S. government's official web portal to all federal, state and local government web resources and services.